Terminal Aerodrome Forecast
Issued by NWS Atlanta, GA

Home | Current Version | Previous Version | Text Only | Print | Product List | Glossary On
Versions: 1 2 3 4 5 6 7 8 9 10 11 12
000
FTUS42 KFFC 060520
TAFCSG
TAF
KCSG 060520Z 0606/0706 08005KT P6SM SKC
     FM061500 11006KT P6SM SKC
     FM061700 11007KT P6SM FEW050
     FM070000 09003KT P6SM SKC
     FM070100 00000KT P6SM SKC=

USA.gov is the U.S. government's official web portal to all federal, state and local government web resources and services.